Time;durP1;ratioP1;P1;durP2;ratioP2;P2;SDS_P1;SDS_P2;PMS_P1;PMS_P2;Temp;Humidity;BMP_temperature;BMP_pressure;BME280_temperature;BME280_humidity;BME280_pressure;Samples;Min_cycle;Max_cycle;Signal;HPM_P1;HPM_P2
2021/01/14 00:00:41;;;;;;;6.30;1.65;;;;;;;-0.38;100.00;96703.28;5000270;28;20135;-79
2021/01/14 00:03:11;;;;;;;7.53;2.20;;;;;;;-0.35;100.00;96732.00;5000292;28;20116;-80
2021/01/14 00:05:41;;;;;;;9.02;2.20;;;;;;;-0.37;100.00;96721.63;4983445;28;20441;-79
2021/01/14 00:08:10;;;;;;;6.57;2.55;;;;;;;-0.36;100.00;96727.75;5022800;28;20068;-78
2021/01/14 00:10:37;;;;;;;13.20;3.17;;;;;;;-0.34;100.00;96729.09;5020340;28;20073;-79
2021/01/14 00:13:08;;;;;;;9.18;2.60;;;;;;;-0.42;100.00;96731.47;5002791;28;20061;-80
2021/01/14 00:15:36;;;;;;;6.65;2.45;;;;;;;-0.43;100.00;96733.31;5019198;28;20124;-78
2021/01/14 00:18:03;;;;;;;10.55;2.40;;;;;;;-0.40;100.00;96726.69;5002287;28;20061;-78
2021/01/14 00:20:29;;;;;;;6.28;1.95;;;;;;;-0.49;100.00;96722.97;5001607;28;20056;-80
2021/01/14 00:22:55;;;;;;;8.23;1.50;;;;;;;-0.49;100.00;96738.94;4994966;28;20106;-82
2021/01/14 00:25:21;;;;;;;10.18;2.28;;;;;;;-0.54;100.00;96726.41;4997535;28;20034;-80
2021/01/14 00:27:50;;;;;;;7.10;1.58;;;;;;;-0.48;100.00;96738.66;4983026;28;20454;-78
2021/01/14 00:30:28;;;;;;;5.55;1.90;;;;;;;-0.51;100.00;96733.84;4968217;28;20038;-82
2021/01/14 00:32:55;;;;;;;8.25;1.50;;;;;;;-0.51;100.00;96744.50;4998167;28;20124;-80
2021/01/14 00:35:23;;;;;;;5.18;1.17;;;;;;;-0.53;100.00;96748.47;4980315;28;20070;-81
2021/01/14 00:37:53;;;;;;;7.78;1.48;;;;;;;-0.52;100.00;96742.91;4980093;28;20050;-79
2021/01/14 00:40:27;;;;;;;4.20;1.30;;;;;;;-0.53;100.00;96743.97;4998382;28;20042;-79
2021/01/14 00:42:58;;;;;;;5.97;1.20;;;;;;;-0.55;100.00;96737.31;4981442;28;20046;-79
2021/01/14 00:45:27;;;;;;;7.88;1.42;;;;;;;-0.53;100.00;96743.16;4967446;28;20163;-80
2021/01/14 00:47:53;;;;;;;5.75;1.35;;;;;;;-0.60;100.00;96738.13;5005059;28;20030;-77
2021/01/14 00:50:21;;;;;;;5.20;0.90;;;;;;;-0.59;100.00;96734.38;5001081;28;20098;-79
2021/01/14 00:52:47;;;;;;;4.60;1.27;;;;;;;-0.63;100.00;96743.97;4982470;28;20053;-78
2021/01/14 00:55:15;;;;;;;8.63;1.23;;;;;;;-0.57;100.00;96740.25;4995734;28;20038;-77
2021/01/14 00:57:43;;;;;;;7.07;1.27;;;;;;;-0.63;100.00;96752.75;4998450;28;20117;-78
2021/01/14 01:00:12;;;;;;;5.72;1.20;;;;;;;-0.63;100.00;96749.28;4997639;28;20077;-79
2021/01/14 01:02:49;;;;;;;3.92;1.60;;;;;;;-0.68;100.00;96742.13;4979206;28;20113;-79
2021/01/14 01:05:17;;;;;;;4.45;1.40;;;;;;;-0.67;100.00;96740.22;4981133;28;20138;-80
2021/01/14 01:07:48;;;;;;;6.75;1.95;;;;;;;-0.73;100.00;96744.75;4997708;28;20049;-79
2021/01/14 01:10:15;;;;;;;6.40;1.70;;;;;;;-0.73;100.00;96742.09;4999650;28;20505;-81
2021/01/14 01:12:44;;;;;;;5.85;1.80;;;;;;;-0.75;100.00;96744.22;4995183;28;20101;-79
2021/01/14 01:15:10;;;;;;;7.25;1.60;;;;;;;-0.78;100.00;96738.66;4979441;28;20045;-79
2021/01/14 01:17:37;;;;;;;7.07;2.08;;;;;;;-0.73;100.00;96741.31;4979759;28;20054;-80
2021/01/14 01:20:04;;;;;;;4.93;1.73;;;;;;;-0.75;100.00;96749.53;4979359;28;20484;-79
2021/01/14 01:22:30;;;;;;;4.60;1.83;;;;;;;-0.74;100.00;96742.34;4980697;28;20106;-78
2021/01/14 01:24:56;;;;;;;7.05;1.90;;;;;;;-0.76;100.00;96747.94;4980550;28;20042;-80
2021/01/14 01:27:23;;;;;;;6.43;1.30;;;;;;;-0.74;100.00;96756.44;4997078;28;20052;-80
2021/01/14 01:29:50;;;;;;;5.78;1.20;;;;;;;-0.77;100.00;96740.22;4996259;28;20425;-80
2021/01/14 01:32:16;;;;;;;3.25;1.00;;;;;;;-0.80;100.00;96762.03;4979965;28;20145;-80
2021/01/14 01:34:42;;;;;;;3.63;1.08;;;;;;;-0.75;100.00;96757.50;4994966;28;20046;-80
2021/01/14 01:37:09;;;;;;;2.63;1.02;;;;;;;-0.76;100.00;96761.22;4999357;28;20048;-80
2021/01/14 01:39:36;;;;;;;4.95;1.55;;;;;;;-0.81;100.00;96757.75;5005865;28;20124;-79
2021/01/14 01:42:03;;;;;;;8.35;1.15;;;;;;;-0.76;100.00;96771.06;4995488;28;20046;-79
2021/01/14 01:44:29;;;;;;;1.65;1.02;;;;;;;-0.81;100.00;96771.84;4978790;28;20042;-80
2021/01/14 01:47:02;;;;;;;5.40;1.00;;;;;;;-0.80;100.00;96764.69;5000057;28;20442;-80
2021/01/14 01:49:29;;;;;;;6.22;1.10;;;;;;;-0.79;100.00;96766.25;5013206;28;20049;-81
2021/01/14 01:51:56;;;;;;;6.90;0.90;;;;;;;-0.78;100.00;96757.25;4997774;28;20152;-78
2021/01/14 01:54:22;;;;;;;5.50;1.08;;;;;;;-0.82;100.00;96741.03;4957055;28;20482;-80
2021/01/14 01:56:49;;;;;;;7.53;1.20;;;;;;;-0.82;100.00;96740.22;4972733;28;20038;-79
2021/01/14 01:59:18;;;;;;;2.85;1.00;;;;;;;-0.78;100.00;96743.97;5000016;28;20041;-79
2021/01/14 02:01:44;;;;;;;4.53;0.80;;;;;;;-0.82;100.00;96734.91;5015902;28;20042;-79
2021/01/14 02:04:10;;;;;;;4.55;0.80;;;;;;;-0.79;100.00;96737.84;5014720;28;20084;-80
2021/01/14 02:06:46;;;;;;;2.10;0.80;;;;;;;-0.74;100.00;96724.56;5017494;28;20144;-80
2021/01/14 02:09:14;;;;;;;;;;;;;;;-0.72;100.00;96743.69;4991088;28;20058;-80
2021/01/14 02:11:43;;;;;;;4.28;0.70;;;;;;;-0.74;100.00;96729.06;4996405;28;19941;-78
2021/01/14 02:14:17;;;;;;;7.72;0.93;;;;;;;-0.72;100.00;96732.25;4994762;28;20078;-79
2021/01/14 02:16:45;;;;;;;6.45;1.00;;;;;;;-0.73;100.00;96736.00;4997518;28;20105;-79
2021/01/14 02:19:25;;;;;;;4.68;0.70;;;;;;;-0.73;100.00;96730.69;5002935;28;20050;-79
2021/01/14 02:22:01;;;;;;;4.03;1.17;;;;;;;-0.70;100.00;96743.44;4983592;28;20046;-80
2021/01/14 02:24:36;;;;;;;6.05;1.15;;;;;;;-0.79;100.00;96737.03;4978297;28;20042;-81
2021/01/14 02:27:04;;;;;;;1.77;0.60;;;;;;;-0.77;100.00;96734.91;4977414;28;20615;-80
2021/01/14 02:29:32;;;;;;;6.05;0.90;;;;;;;-0.83;100.00;96728.00;5004266;28;20408;-79
2021/01/14 02:31:58;;;;;;;5.47;0.98;;;;;;;-0.85;100.00;96735.47;5020629;28;20074;-80
2021/01/14 02:34:25;;;;;;;2.05;0.70;;;;;;;-0.80;100.00;96730.16;5012067;28;20097;-80
2021/01/14 02:36:51;;;;;;;6.65;1.40;;;;;;;-0.85;100.00;96751.41;5013804;28;20396;-80
2021/01/14 02:39:17;;;;;;;5.30;1.48;;;;;;;-0.90;100.00;96744.19;5011766;28;20552;-79
2021/01/14 02:41:43;;;;;;;4.63;1.10;;;;;;;-0.87;100.00;96748.19;5013164;28;20501;-79
2021/01/14 02:44:10;;;;;;;4.22;1.40;;;;;;;-0.91;100.00;96757.75;5011665;28;20574;-80
2021/01/14 02:46:38;;;;;;;7.32;1.05;;;;;;;-0.90;100.00;96759.34;5015026;28;20072;-80
2021/01/14 02:49:07;;;;;;;5.57;1.58;;;;;;;-0.99;100.00;96768.88;5014917;28;20591;-83
2021/01/14 02:51:47;;;;;;;6.75;2.30;;;;;;;-1.22;100.00;96772.81;5015153;28;20061;-81
2021/01/14 02:54:15;;;;;;;8.50;2.35;;;;;;;-1.35;100.00;96755.53;5005102;28;20033;-81
2021/01/14 02:56:42;;;;;;;8.50;2.00;;;;;;;-1.38;100.00;96765.84;4983203;28;20053;-80
2021/01/14 02:59:11;;;;;;;7.05;1.80;;;;;;;-1.40;100.00;96760.00;5016053;28;20050;-79
2021/01/14 03:01:37;;;;;;;5.15;2.10;;;;;;;-1.42;100.00;96773.53;5001673;28;20051;-81
2021/01/14 03:04:08;;;;;;;9.82;2.60;;;;;;;-1.55;100.00;96768.69;5000377;28;20054;-79
2021/01/14 03:06:35;;;;;;;6.82;2.22;;;;;;;-1.59;100.00;96780.91;5004950;28;20128;-80
2021/01/14 03:09:01;;;;;;;6.82;2.70;;;;;;;-1.61;100.00;96780.34;5022985;28;20048;-79
2021/01/14 03:11:32;;;;;;;5.75;2.45;;;;;;;-1.65;100.00;96786.44;4994791;28;20054;-79
2021/01/14 03:13:59;;;;;;;8.80;3.20;;;;;;;-1.66;100.00;96801.56;5005487;28;20065;-80
2021/01/14 03:16:25;;;;;;;8.73;3.17;;;;;;;-1.66;100.00;96792.78;5002845;28;20046;-79
2021/01/14 03:18:52;;;;;;;11.52;3.08;;;;;;;-1.63;100.00;96806.34;5020213;28;20053;-80
2021/01/14 03:21:22;;;;;;;14.48;3.75;;;;;;;-1.61;100.00;96809.53;5021373;28;20038;-80
2021/01/14 03:23:51;;;;;;;5.80;2.60;;;;;;;-1.56;100.00;96811.41;5022899;28;20046;-81
2021/01/14 03:26:18;;;;;;;9.35;2.70;;;;;;;-1.55;100.00;96811.16;5025143;28;20038;-79
2021/01/14 03:28:46;;;;;;;11.05;3.20;;;;;;;-1.51;100.00;96809.59;5016890;28;20041;-81
2021/01/14 03:31:16;;;;;;;11.85;3.95;;;;;;;-1.49;100.00;96807.47;5000240;28;20224;-81
2021/01/14 03:33:43;;;;;;;23.08;8.02;;;;;;;-1.47;100.00;96820.50;5016548;28;20080;-81
2021/01/14 03:36:33;;;;;;;25.15;8.30;;;;;;;-1.55;100.00;96805.06;5021175;28;20056;-82
2021/01/14 03:39:00;;;;;;;16.20;7.15;;;;;;;-1.48;100.00;96803.78;4985169;28;20052;-81
2021/01/14 03:41:35;;;;;;;14.45;5.93;;;;;;;-1.54;100.00;96819.91;4999730;28;20077;-83
2021/01/14 03:44:19;;;;;;;11.90;4.18;;;;;;;-1.76;100.00;96785.59;4999866;28;20465;-84
2021/01/14 03:47:09;;;;;;;10.32;3.60;;;;;;;-1.74;100.00;96807.34;4985597;28;20052;-83
2021/01/14 03:49:36;;;;;;;8.65;3.20;;;;;;;-1.77;100.00;96799.91;5001697;28;20533;-84
2021/01/14 03:52:09;;;;;;;12.48;4.70;;;;;;;-1.65;100.00;96845.59;4999920;28;20339;-82
2021/01/14 03:54:44;;;;;;;13.30;4.20;;;;;;;-1.64;100.00;96846.41;4982911;28;20133;-82
2021/01/14 03:57:11;;;;;;;13.10;5.13;;;;;;;-1.64;100.00;96846.41;4998000;28;20061;-81
2021/01/14 03:59:37;;;;;;;10.88;4.03;;;;;;;-1.66;100.00;96864.44;4982523;28;20046;-83
2021/01/14 04:02:10;;;;;;;8.43;4.15;;;;;;;-1.66;100.00;96857.28;5016767;28;20456;-82
2021/01/14 04:04:38;;;;;;;12.95;4.68;;;;;;;-1.66;100.00;96856.47;4998154;28;20339;-82
2021/01/14 04:07:11;;;;;;;9.48;4.53;;;;;;;-1.60;100.00;96866.84;4994417;28;20066;-83
2021/01/14 04:09:39;;;;;;;9.25;4.32;;;;;;;-1.59;100.00;96867.66;4981163;28;20061;-83
2021/01/14 04:12:11;;;;;;;12.45;4.65;;;;;;;-1.55;100.00;96866.88;5000209;28;20118;-80
2021/01/14 04:14:38;;;;;;;13.95;4.22;;;;;;;-1.52;100.00;96866.38;5017443;28;20132;-83
2021/01/14 04:17:13;;;;;;;13.85;5.07;;;;;;;-1.51;100.00;96859.22;4985105;28;20042;-84
2021/01/14 04:19:42;;;;;;;7.95;3.92;;;;;;;-1.48;100.00;96872.78;4948585;28;20440;-84
2021/01/14 04:22:09;;;;;;;6.10;3.67;;;;;;;-1.51;100.00;96878.59;5013116;28;20053;-83
2021/01/14 04:24:38;;;;;;;7.45;3.90;;;;;;;-1.42;100.00;96889.53;5004063;28;20034;-87
2021/01/14 04:27:05;;;;;;;8.43;4.15;;;;;;;-1.43;100.00;96883.41;4984337;28;20490;-82
2021/01/14 04:29:32;;;;;;;10.02;4.50;;;;;;;-1.42;100.00;96903.56;5015719;28;20046;-84
2021/01/14 04:31:59;;;;;;;10.90;4.50;;;;;;;-1.43;100.00;96903.84;4978662;28;20050;-83
2021/01/14 04:34:43;;;;;;;9.77;4.82;;;;;;;-1.32;100.00;96916.13;4977203;28;20057;-86
2021/01/14 04:37:10;;;;;;;13.00;4.80;;;;;;;-1.26;100.00;96899.16;4979605;28;20132;-85
2021/01/14 04:39:36;;;;;;;13.20;5.05;;;;;;;-1.31;100.00;96918.50;4980086;28;20335;-82
2021/01/14 04:42:07;;;;;;;10.60;4.85;;;;;;;-1.32;100.00;96910.81;4995706;28;20042;-86
2021/01/14 04:44:34;;;;;;;11.52;5.50;;;;;;;-1.42;100.00;96924.03;4979047;28;20038;-86
2021/01/14 04:47:07;;;;;;;8.93;5.05;;;;;;;-1.35;100.00;96928.06;4996531;28;20044;-86
2021/01/14 04:49:34;;;;;;;10.20;5.03;;;;;;;-1.37;100.00;96932.78;4986546;28;20073;-83
2021/01/14 04:52:14;;;;;;;8.48;4.88;;;;;;;-1.31;100.00;96942.41;4999185;28;20046;-85
2021/01/14 04:54:42;;;;;;;11.63;5.30;;;;;;;-1.31;100.00;96937.09;4997042;28;20103;-86
2021/01/14 04:57:20;;;;;;;12.20;6.07;;;;;;;-1.32;100.00;96950.63;4964686;28;20129;-85
2021/01/14 04:59:52;;;;;;;11.60;5.50;;;;;;;-1.31;100.00;96960.19;4996459;28;20124;-84
2021/01/14 05:02:23;;;;;;;12.25;5.90;;;;;;;-1.29;100.00;96969.50;4996076;28;20057;-85
2021/01/14 05:04:51;;;;;;;11.60;6.00;;;;;;;-1.30;100.00;96980.38;4978920;28;20058;-84
2021/01/14 05:07:37;;;;;;;11.00;6.35;;;;;;;-1.23;100.00;96990.75;4997478;28;20057;-85
2021/01/14 05:10:07;;;;;;;14.50;6.15;;;;;;;-1.20;100.00;96983.09;4997000;28;20100;-86
2021/01/14 05:12:34;;;;;;;13.13;7.40;;;;;;;-1.18;100.00;96990.78;4999114;28;20046;-86
2021/01/14 05:15:02;;;;;;;13.30;6.47;;;;;;;-1.17;100.00;96997.72;4980929;28;20046;-85
2021/01/14 05:17:29;;;;;;;14.85;7.50;;;;;;;-1.19;100.00;96995.31;4985581;23;20293;-81
2021/01/14 05:19:56;;;;;;;11.30;6.30;;;;;;;-1.22;100.00;96998.50;4979293;28;20225;-82
2021/01/14 05:22:24;;;;;;;12.57;6.43;;;;;;;-1.14;100.00;97003.31;4997352;28;20057;-80
2021/01/14 05:25:10;;;;;;;12.95;6.45;;;;;;;-1.13;100.00;97018.19;4984720;28;20347;-81
2021/01/14 05:27:37;;;;;;;10.63;7.00;;;;;;;-1.11;100.00;97021.38;4999626;28;20046;-81
2021/01/14 05:30:04;;;;;;;12.57;6.82;;;;;;;-1.08;100.00;97015.56;5002127;28;20046;-82
2021/01/14 05:32:37;;;;;;;13.30;6.47;;;;;;;-1.15;100.00;97033.56;5001514;28;20049;-82
2021/01/14 05:35:06;;;;;;;12.63;6.65;;;;;;;-1.09;100.00;97040.53;5001601;28;20043;-80
2021/01/14 05:37:41;;;;;;;18.40;7.32;;;;;;;-1.11;100.00;97052.47;5001808;28;20095;-80
2021/01/14 05:40:12;;;;;;;11.80;7.80;;;;;;;-1.14;100.00;97059.09;5003095;28;20553;-80
2021/01/14 05:42:40;;;;;;;15.48;7.82;;;;;;;-1.20;100.00;97062.75;5006978;28;20116;-81
2021/01/14 05:45:21;;;;;;;15.65;8.45;;;;;;;-1.19;100.00;97051.09;4996835;28;20078;-79
2021/01/14 05:47:47;;;;;;;14.63;8.20;;;;;;;-1.11;100.00;97079.78;4996017;28;20054;-80
2021/01/14 05:50:14;;;;;;;20.85;8.80;;;;;;;-1.08;100.00;97079.28;5005831;28;20426;-80
2021/01/14 05:52:42;;;;;;;15.75;8.57;;;;;;;-1.08;100.00;97084.59;4998901;28;20050;-80
2021/01/14 05:55:10;;;;;;;20.05;8.80;;;;;;;-1.07;100.00;97080.91;4991894;28;20140;-80
2021/01/14 05:57:38;;;;;;;14.45;8.25;;;;;;;-0.92;100.00;97085.50;4989827;28;20520;-80
2021/01/14 06:00:12;;;;;;;13.77;7.38;;;;;;;-0.98;100.00;97102.50;4987463;28;20043;-79
2021/01/14 06:02:39;;;;;;;17.30;9.27;;;;;;;-0.95;100.00;97104.63;4987308;28;20038;-79
2021/01/14 06:05:26;;;;;;;18.80;7.05;;;;;;;-0.98;100.00;97108.59;4981722;28;20062;-80
2021/01/14 06:07:53;;;;;;;11.43;7.00;;;;;;;-0.88;100.00;97115.84;4997091;28;20046;-82
2021/01/14 06:10:34;;;;;;;10.15;6.22;;;;;;;-0.86;100.00;97119.03;4976438;28;20074;-80
2021/01/14 06:13:00;;;;;;;9.98;6.35;;;;;;;-0.84;100.00;97098.31;4978838;28;20050;-82
2021/01/14 06:15:27;;;;;;;13.60;6.32;;;;;;;-0.81;100.00;97119.88;4996446;28;20053;-81
2021/01/14 06:18:01;;;;;;;13.13;7.20;;;;;;;-0.86;100.00;97124.34;4991468;28;20284;-80
2021/01/14 06:20:27;;;;;;;12.93;6.30;;;;;;;-0.80;100.00;97137.41;4983215;28;20105;-80
2021/01/14 06:22:58;;;;;;;10.82;6.57;;;;;;;-0.83;100.00;97143.25;5000158;28;20077;-81
2021/01/14 06:25:26;;;;;;;10.63;7.28;;;;;;;-0.79;100.00;97152.31;5000102;28;20065;-81
2021/01/14 06:27:56;;;;;;;11.30;6.55;;;;;;;-0.85;100.00;97153.31;4996726;28;20042;-78
2021/01/14 06:30:22;;;;;;;13.82;7.80;;;;;;;-0.79;100.00;97170.91;4977029;28;20051;-78
2021/01/14 06:33:01;;;;;;;14.23;6.53;;;;;;;-0.77;100.00;97168.00;4980856;28;20038;-78
2021/01/14 06:35:28;;;;;;;11.23;6.40;;;;;;;-0.71;100.00;97170.44;4998301;28;20044;-79
2021/01/14 06:38:01;;;;;;;13.27;7.55;;;;;;;-0.75;100.00;97174.66;5004350;28;20322;-81
2021/01/14 06:40:28;;;;;;;11.98;6.63;;;;;;;-0.71;100.00;97188.25;5003291;28;20047;-79
2021/01/14 06:42:57;;;;;;;12.65;6.57;;;;;;;-0.77;100.00;97190.06;4990730;28;20053;-81
2021/01/14 06:45:30;;;;;;;14.98;6.93;;;;;;;-0.72;100.00;97207.88;4984934;28;20047;-80
2021/01/14 06:48:12;;;;;;;13.75;7.07;;;;;;;-0.71;100.00;97223.59;4984900;28;20047;-81
2021/01/14 06:50:49;;;;;;;10.80;6.20;;;;;;;-0.65;100.00;97232.41;4965860;28;20054;-79
2021/01/14 06:53:20;;;;;;;8.52;5.65;;;;;;;-0.71;100.00;97239.53;4986632;28;20056;-80
2021/01/14 06:55:50;;;;;;;9.93;5.35;;;;;;;-0.70;100.00;97245.66;4984557;28;20043;-81
2021/01/14 06:58:19;;;;;;;15.15;5.60;;;;;;;-0.66;100.00;97257.38;4994320;28;20449;-78
2021/01/14 07:00:47;;;;;;;10.10;5.50;;;;;;;-0.66;100.00;97260.03;4999048;28;20047;-78
2021/01/14 07:03:16;;;;;;;10.00;5.80;;;;;;;-0.67;100.00;97279.69;4984333;28;20042;-79
2021/01/14 07:06:01;;;;;;;10.13;5.20;;;;;;;-0.79;100.00;97285.16;5002954;28;20109;-79
2021/01/14 07:08:31;;;;;;;11.75;5.35;;;;;;;-0.72;100.00;97307.00;5002436;28;20462;-80
2021/01/14 07:11:01;;;;;;;8.57;5.38;;;;;;;-0.77;100.00;97296.34;5003572;28;20042;-80
2021/01/14 07:13:33;;;;;;;8.60;4.72;;;;;;;-0.71;100.00;97313.94;5003791;28;20488;-79
2021/01/14 07:16:00;;;;;;;9.68;5.00;;;;;;;-0.66;100.00;97307.88;5004253;28;20502;-81
2021/01/14 07:18:30;;;;;;;8.60;5.10;;;;;;;-0.63;100.00;97310.03;4999849;28;20056;-78
2021/01/14 07:21:04;;;;;;;12.05;6.15;;;;;;;-0.65;100.00;97322.78;5003217;28;20050;-79
2021/01/14 07:23:36;;;;;;;11.20;5.63;;;;;;;-0.64;100.00;97330.47;4984712;28;20051;-81
2021/01/14 07:26:06;;;;;;;9.02;4.88;;;;;;;-0.58;100.00;97327.88;4985333;28;20073;-81
2021/01/14 07:28:36;;;;;;;7.68;3.90;;;;;;;-0.56;100.00;97328.41;5018333;28;20045;-79
2021/01/14 07:31:25;;;;;;;9.43;4.20;;;;;;;-0.63;100.00;97347.25;4995838;28;20433;-79
2021/01/14 07:33:54;;;;;;;9.52;3.95;;;;;;;-0.60;100.00;97338.78;4989746;28;20046;-80
2021/01/14 07:36:24;;;;;;;9.18;4.07;;;;;;;-0.54;100.00;97356.34;5010251;28;20553;-79
2021/01/14 07:38:57;;;;;;;7.50;4.68;;;;;;;-0.56;100.00;97347.84;5008369;28;20044;-80
2021/01/14 07:41:55;;;;;;;8.15;4.38;;;;;;;-0.52;100.00;97369.41;5010831;28;20057;-81
2021/01/14 07:44:21;;;;;;;9.93;4.43;;;;;;;-0.55;100.00;97378.69;5011909;28;20050;-81
2021/01/14 07:46:50;;;;;;;10.07;4.88;;;;;;;-0.53;100.00;97383.75;4993257;28;20503;-81
2021/01/14 07:49:29;;;;;;;9.00;4.40;;;;;;;-0.55;100.00;97384.00;4991843;28;20038;-80
2021/01/14 07:52:01;;;;;;;10.63;4.70;;;;;;;-0.55;100.00;97397.31;5011591;28;20136;-80
2021/01/14 07:54:27;;;;;;;7.95;4.63;;;;;;;-0.54;100.00;97401.53;5012967;28;20042;-80
2021/01/14 07:56:59;;;;;;;9.52;4.35;;;;;;;-0.43;100.00;97413.09;4992700;28;20098;-79
2021/01/14 07:59:29;;;;;;;11.52;5.20;;;;;;;-0.30;100.00;97410.03;4988633;28;20060;-79
2021/01/14 08:02:09;;;;;;;7.80;4.00;;;;;;;-0.45;100.00;97421.34;5012181;28;20176;-80
2021/01/14 08:04:48;;;;;;;12.73;4.80;;;;;;;-0.35;100.00;97440.03;4997074;28;20045;-81
2021/01/14 08:07:25;;;;;;;9.45;3.97;;;;;;;-0.28;100.00;97430.00;5012515;28;20485;-81
2021/01/14 08:09:52;;;;;;;10.13;4.57;;;;;;;-0.36;100.00;97424.34;5005392;28;20042;-83
2021/01/14 08:12:20;;;;;;;7.40;3.95;;;;;;;-0.22;100.00;97438.84;5001089;28;20050;-80
2021/01/14 08:14:47;;;;;;;8.77;4.70;;;;;;;-0.26;100.00;97443.84;4994531;28;20313;-79
2021/01/14 08:17:27;;;;;;;6.43;3.92;;;;;;;-0.31;100.00;97424.41;4985578;28;20046;-79
2021/01/14 08:19:54;;;;;;;7.90;4.00;;;;;;;-0.03;100.00;97458.75;4986021;28;20051;-80
2021/01/14 08:22:21;;;;;;;5.93;3.65;;;;;;;-0.03;100.00;97464.84;4983043;28;20050;-79
2021/01/14 08:24:52;;;;;;;6.75;3.85;;;;;;;-0.14;100.00;97468.47;4979505;28;20047;-78
2021/01/14 08:27:30;;;;;;;6.13;3.72;;;;;;;0.03;100.00;97471.00;4977231;28;20043;-78
2021/01/14 08:30:15;;;;;;;6.00;3.92;;;;;;;-0.17;100.00;97473.47;4987183;28;20053;-79
2021/01/14 08:33:05;;;;;;;8.07;4.47;;;;;;;-0.14;100.00;97478.31;5002970;28;20050;-78
2021/01/14 08:35:41;;;;;;;8.98;3.60;;;;;;;-0.05;100.00;97488.22;5001747;28;20070;-79
2021/01/14 08:38:07;;;;;;;7.90;3.97;;;;;;;-0.04;100.00;97494.38;5007955;28;20096;-79
2021/01/14 08:40:36;;;;;;;6.05;3.60;;;;;;;-0.01;100.00;97502.66;4996103;28;20046;-80
2021/01/14 08:43:10;;;;;;;6.72;3.85;;;;;;;0.02;100.00;97503.22;4997374;28;20456;-79
2021/01/14 08:45:52;;;;;;;9.23;4.03;;;;;;;0.02;100.00;97495.22;4996498;28;20052;-79
2021/01/14 08:48:25;;;;;;;8.15;3.85;;;;;;;0.04;100.00;97498.44;5012951;28;20046;-79
2021/01/14 08:50:54;;;;;;;9.45;4.13;;;;;;;0.16;100.00;97509.72;5017258;28;20624;-80
2021/01/14 08:53:28;;;;;;;8.20;3.72;;;;;;;0.17;100.00;97516.66;5015171;28;20054;-79
2021/01/14 08:56:08;;;;;;;6.75;3.97;;;;;;;0.18;100.00;97518.28;5013727;28;20109;-79
2021/01/14 08:58:38;;;;;;;11.65;4.60;;;;;;;0.16;100.00;97523.03;4996159;28;20472;-79
2021/01/14 09:01:07;;;;;;;9.30;4.70;;;;;;;0.23;100.00;97524.47;4993203;28;20125;-79
2021/01/14 09:03:35;;;;;;;9.55;4.70;;;;;;;0.29;100.00;97522.63;4994126;28;20411;-78
2021/01/14 09:06:02;;;;;;;10.23;4.53;;;;;;;0.40;100.00;97535.78;4993792;28;20042;-78
2021/01/14 09:08:28;;;;;;;8.38;5.45;;;;;;;0.42;100.00;97543.50;4976413;28;20409;-79
2021/01/14 09:10:56;;;;;;;9.02;4.90;;;;;;;0.54;100.00;97544.97;4976778;28;20438;-79
2021/01/14 09:13:27;;;;;;;9.50;4.70;;;;;;;0.57;100.00;97551.63;4975950;28;20053;-80
2021/01/14 09:15:56;;;;;;;10.02;4.75;;;;;;;0.53;100.00;97548.69;4975136;28;20049;-79
2021/01/14 09:18:34;;;;;;;13.27;4.85;;;;;;;0.71;100.00;97565.34;4981142;28;20122;-79
2021/01/14 09:21:04;;;;;;;15.20;5.00;;;;;;;0.57;100.00;97570.28;4987669;28;20234;-80
2021/01/14 09:23:35;;;;;;;9.90;5.20;;;;;;;0.75;100.00;97566.47;5001350;28;20046;-79
2021/01/14 09:26:03;;;;;;;8.07;4.53;;;;;;;0.75;100.00;97574.47;4996414;28;20042;-80
2021/01/14 09:28:31;;;;;;;10.30;4.57;;;;;;;0.82;100.00;97594.50;4992534;28;20319;-80
2021/01/14 09:30:58;;;;;;;6.75;3.67;;;;;;;0.85;100.00;97595.88;4995148;28;20085;-80
2021/01/14 09:33:30;;;;;;;7.50;4.63;;;;;;;0.79;100.00;97595.00;4992827;28;20042;-80
2021/01/14 09:36:15;;;;;;;8.15;4.22;;;;;;;0.85;100.00;97596.63;4996812;28;20050;-80
2021/01/14 09:38:48;;;;;;;7.85;4.20;;;;;;;0.78;100.00;97617.38;4978216;28;20084;-80
2021/01/14 09:41:23;;;;;;;7.72;3.83;;;;;;;0.80;100.00;97619.78;4994894;28;20378;-81
2021/01/14 09:44:15;;;;;;;10.88;5.00;;;;;;;0.86;100.00;97626.75;4981060;28;20340;-78
2021/01/14 09:46:46;;;;;;;7.78;4.35;;;;;;;0.90;100.00;97626.03;4995423;28;20049;-79
2021/01/14 09:49:15;;;;;;;10.23;4.88;;;;;;;0.89;100.00;97635.06;4995813;28;20049;-78
2021/01/14 09:51:42;;;;;;;9.38;4.47;;;;;;;0.94;100.00;97640.44;5008107;28;20046;-78
2021/01/14 09:54:10;;;;;;;9.27;5.55;;;;;;;0.97;100.00;97655.13;4990544;28;20042;-78
2021/01/14 09:56:41;;;;;;;9.02;5.22;;;;;;;0.79;100.00;97648.28;5004879;28;20054;-79
2021/01/14 09:59:13;;;;;;;11.68;5.45;;;;;;;0.78;100.00;97661.84;5003227;28;20046;-78
2021/01/14 10:01:43;;;;;;;8.73;5.13;;;;;;;0.93;100.00;97665.47;5008685;28;20038;-79
2021/01/14 10:04:14;;;;;;;8.57;4.72;;;;;;;0.76;100.00;97671.97;5006189;28;20152;-79
2021/01/14 10:06:44;;;;;;;8.27;5.30;;;;;;;0.84;100.00;97682.16;4998712;28;20047;-78
2021/01/14 10:09:11;;;;;;;8.40;5.10;;;;;;;0.92;100.00;97679.88;4995368;28;20547;-80
2021/01/14 10:11:37;;;;;;;11.55;5.95;;;;;;;0.79;100.00;97671.47;4999153;28;20120;-81
2021/01/14 10:14:05;;;;;;;9.85;5.97;;;;;;;0.88;100.00;97661.97;4999259;28;20050;-81
2021/01/14 10:16:31;;;;;;;10.82;5.68;;;;;;;0.84;100.00;97663.50;5000412;28;20043;-78
2021/01/14 10:19:09;;;;;;;11.75;6.47;;;;;;;0.99;100.00;97669.00;4997492;28;20042;-77
2021/01/14 10:21:37;;;;;;;10.23;6.22;;;;;;;1.24;100.00;97677.19;4996635;28;20046;-80
2021/01/14 10:24:17;;;;;;;9.35;6.15;;;;;;;1.25;100.00;97681.50;4994513;28;20054;-78
2021/01/14 10:26:43;;;;;;;9.65;6.07;;;;;;;1.29;100.00;97681.78;5008297;28;20038;-78
2021/01/14 10:29:10;;;;;;;9.75;5.88;;;;;;;1.25;100.00;97687.63;4995455;28;20047;-79
2021/01/14 10:31:44;;;;;;;11.80;6.10;;;;;;;1.06;100.00;97688.22;4994052;28;20042;-78
2021/01/14 10:34:11;;;;;;;11.73;6.20;;;;;;;1.03;100.00;97694.88;5018805;28;20141;-79
2021/01/14 10:36:52;;;;;;;11.77;6.45;;;;;;;1.03;100.00;97697.53;5001895;28;20061;-79
2021/01/14 10:39:18;;;;;;;13.45;6.53;;;;;;;0.90;100.00;97689.97;4983330;28;20051;-80
2021/01/14 10:41:48;;;;;;;12.57;6.43;;;;;;;0.98;100.00;97702.03;5020725;28;20050;-81
2021/01/14 10:44:14;;;;;;;13.07;7.05;;;;;;;0.85;100.00;97692.56;5008052;28;20065;-80
2021/01/14 10:46:41;;;;;;;18.98;9.00;;;;;;;1.05;100.00;97706.13;5012756;28;20048;-81
2021/01/14 10:49:12;;;;;;;13.95;7.60;;;;;;;1.05;100.00;97711.44;5008282;28;20061;-81
2021/01/14 10:51:40;;;;;;;13.52;7.75;;;;;;;0.75;100.00;97715.66;5026933;28;20052;-81
2021/01/14 10:54:07;;;;;;;11.45;6.55;;;;;;;0.97;100.00;97716.41;5009572;28;20042;-81
2021/01/14 10:56:51;;;;;;;10.95;6.47;;;;;;;0.91;100.00;97714.75;5025034;28;20049;-80
2021/01/14 10:59:22;;;;;;;12.60;6.50;;;;;;;0.92;100.00;97711.03;4994239;28;20045;-78
2021/01/14 11:02:09;;;;;;;10.45;5.53;;;;;;;0.93;100.00;97702.00;5003687;28;20038;-78
2021/01/14 11:04:35;;;;;;;11.48;6.53;;;;;;;1.11;100.00;97710.41;4994333;28;20057;-78
2021/01/14 11:07:12;;;;;;;9.65;5.57;;;;;;;1.16;100.00;97712.34;5003850;28;20035;-77
2021/01/14 11:09:51;;;;;;;12.18;5.70;;;;;;;1.12;100.00;97720.03;5009482;28;20520;-78
2021/01/14 11:12:18;;;;;;;9.32;5.13;;;;;;;1.22;100.00;97720.13;5012640;28;20046;-78
2021/01/14 11:14:56;;;;;;;9.40;5.30;;;;;;;1.21;100.00;97723.06;5003826;28;20038;-78
2021/01/14 11:17:24;;;;;;;8.73;4.90;;;;;;;1.13;100.00;97721.66;5014054;23;20046;-85
2021/01/14 11:20:03;;;;;;;11.27;5.10;;;;;;;1.20;100.00;97729.44;4996209;28;20060;-85
2021/01/14 11:22:29;;;;;;;15.35;5.22;;;;;;;1.29;100.00;97719.13;4996885;28;20077;-82
2021/01/14 11:24:56;;;;;;;11.60;4.60;;;;;;;1.38;100.00;97712.25;4982758;28;20045;-84
2021/01/14 11:27:28;;;;;;;9.70;4.90;;;;;;;1.60;100.00;97727.09;4982813;28;20050;-84
2021/01/14 11:29:55;;;;;;;7.97;4.45;;;;;;;1.65;100.00;97727.13;5015916;28;20232;-83
2021/01/14 11:32:21;;;;;;;9.75;4.53;;;;;;;1.85;100.00;97723.84;4981570;28;20068;-83
2021/01/14 11:34:47;;;;;;;12.90;4.90;;;;;;;1.72;100.00;97714.41;4965402;28;20053;-80
2021/01/14 11:37:13;;;;;;;8.30;4.07;;;;;;;1.95;100.00;97704.41;4999353;28;20045;-83
2021/01/14 11:39:39;;;;;;;8.65;3.92;;;;;;;1.87;100.00;97709.16;4990292;28;20093;-83